createdAt,value
2023-05-14T00:01:32.757Z,13.64
2023-05-14T00:03:59.929Z,13.51
2023-05-14T00:06:26.986Z,13.43
2023-05-14T00:08:53.964Z,13.51
2023-05-14T00:11:21.421Z,13.58
2023-05-14T00:13:49.101Z,13.61
2023-05-14T00:16:16.364Z,13.58
2023-05-14T00:18:43.451Z,13.61
2023-05-14T00:21:10.517Z,13.59
2023-05-14T00:23:37.525Z,13.58
2023-05-14T00:26:04.663Z,13.41
2023-05-14T00:28:31.648Z,13.43
2023-05-14T00:30:58.659Z,13.40
2023-05-14T00:33:25.695Z,13.52
2023-05-14T00:35:52.786Z,13.59
2023-05-14T00:38:19.772Z,13.44
2023-05-14T00:40:51.386Z,13.38
2023-05-14T00:43:20.917Z,13.37
2023-05-14T00:45:51.161Z,13.37
2023-05-14T00:48:19.607Z,13.37
2023-05-14T00:50:46.836Z,13.41
2023-05-14T00:53:14.018Z,13.34
2023-05-14T00:55:42.604Z,13.22
2023-05-14T00:58:13.889Z,13.18
2023-05-14T01:00:42.243Z,13.20
2023-05-14T01:03:09.920Z,13.21
2023-05-14T01:06:00.892Z,13.10
2023-05-14T01:08:51.655Z,13.07
2023-05-14T01:12:03.126Z,12.93
2023-05-14T01:14:45.135Z,13.00
2023-05-14T01:17:15.762Z,13.05
2023-05-14T01:19:47.805Z,13.03
2023-05-14T01:22:14.905Z,12.94
2023-05-14T01:24:41.940Z,12.88
2023-05-14T01:28:01.897Z,12.77
2023-05-14T01:30:38.028Z,12.75
2023-05-14T01:33:13.811Z,12.71
2023-05-14T01:35:41.486Z,12.63
2023-05-14T01:38:12.429Z,12.58
2023-05-14T01:40:40.313Z,12.53
2023-05-14T01:43:07.858Z,12.49
2023-05-14T01:45:36.609Z,12.47
2023-05-14T01:48:05.724Z,12.52
2023-05-14T01:50:32.774Z,12.42
2023-05-14T01:52:59.792Z,12.31
2023-05-14T01:55:26.866Z,12.46
2023-05-14T01:57:54.686Z,12.36
2023-05-14T02:00:27.639Z,12.35
2023-05-14T02:02:54.802Z,12.11
2023-05-14T02:05:22.022Z,11.99
2023-05-14T02:07:49.032Z,12.07
2023-05-14T02:10:16.208Z,11.93
2023-05-14T02:12:43.246Z,11.96
2023-05-14T02:15:11.209Z,11.88
2023-05-14T02:17:38.590Z,11.69
2023-05-14T02:20:07.018Z,11.68
2023-05-14T02:22:34.116Z,11.78
2023-05-14T02:25:01.371Z,11.74
2023-05-14T02:27:28.406Z,11.74
2023-05-14T02:29:56.650Z,11.68
2023-05-14T02:32:23.764Z,11.66
2023-05-14T02:34:50.848Z,11.72
2023-05-14T02:37:17.808Z,11.58
2023-05-14T02:39:44.907Z,11.58
2023-05-14T02:42:11.956Z,11.51
2023-05-14T02:44:38.989Z,11.53
2023-05-14T02:47:06.254Z,11.46
2023-05-14T02:49:33.291Z,11.50
2023-05-14T02:52:00.966Z,11.44
2023-05-14T02:54:27.977Z,11.63
2023-05-14T02:56:54.966Z,11.50
2023-05-14T02:59:24.193Z,11.61
2023-05-14T03:01:51.767Z,11.59
2023-05-14T03:04:19.393Z,11.67
2023-05-14T03:06:46.353Z,11.52
2023-05-14T03:09:13.405Z,11.64
2023-05-14T03:11:40.758Z,11.69
2023-05-14T03:14:07.786Z,11.74
2023-05-14T03:16:34.813Z,11.80
2023-05-14T03:19:01.926Z,11.82
2023-05-14T03:21:29.101Z,11.97
2023-05-14T03:23:56.121Z,12.16
2023-05-14T03:26:23.174Z,12.58
2023-05-14T03:28:50.869Z,13.28
2023-05-14T03:31:18.079Z,14.08
2023-05-14T03:33:45.462Z,14.99
2023-05-14T03:36:12.496Z,15.89
2023-05-14T03:38:39.473Z,16.54
2023-05-14T03:41:06.639Z,16.95
2023-05-14T03:43:33.650Z,17.43
2023-05-14T03:46:00.693Z,17.62
2023-05-14T03:48:27.926Z,18.60
2023-05-14T03:50:55.183Z,19.01
2023-05-14T03:53:22.208Z,19.94
2023-05-14T03:55:49.200Z,20.53
2023-05-14T03:58:16.412Z,21.05
2023-05-14T04:00:44.020Z,21.86
2023-05-14T04:03:11.936Z,22.12
2023-05-14T04:05:39.014Z,22.88
2023-05-14T04:08:06.108Z,23.81
2023-05-14T04:10:33.205Z,24.58
2023-05-14T04:13:00.326Z,24.94
2023-05-14T04:15:27.416Z,25.46
2023-05-14T04:17:54.437Z,26.48
2023-05-14T04:20:21.570Z,26.95
2023-05-14T04:22:48.844Z,26.95
2023-05-14T04:25:16.008Z,27.79
2023-05-14T04:27:42.953Z,28.52
2023-05-14T04:30:10.662Z,28.74
2023-05-14T04:32:38.108Z,29.06
2023-05-14T04:35:06.021Z,29.85
2023-05-14T04:37:33.137Z,30.22
2023-05-14T04:40:01.002Z,31.23
2023-05-14T04:42:27.984Z,31.80
2023-05-14T04:44:54.979Z,31.15
2023-05-14T04:47:22.541Z,31.90
2023-05-14T04:49:49.642Z,32.26
2023-05-14T04:52:16.667Z,32.33
2023-05-14T04:54:43.775Z,33.51
2023-05-14T04:57:10.787Z,33.53
2023-05-14T04:59:37.802Z,33.89
2023-05-14T05:02:05.129Z,34.05
2023-05-14T05:04:32.149Z,33.83
2023-05-14T05:06:59.224Z,33.34
2023-05-14T05:09:26.197Z,33.07
2023-05-14T05:11:53.208Z,33.32
2023-05-14T05:14:20.188Z,34.41
2023-05-14T05:16:47.770Z,32.80
2023-05-14T05:19:14.793Z,34.01
2023-05-14T05:21:41.902Z,33.70
2023-05-14T05:24:09.113Z,33.54
2023-05-14T05:26:39.258Z,33.73
2023-05-14T05:29:06.539Z,36.27
2023-05-14T05:31:33.992Z,34.90
2023-05-14T05:34:01.376Z,35.31
2023-05-14T05:36:28.807Z,36.12
2023-05-14T05:38:56.227Z,36.07
2023-05-14T05:41:23.234Z,35.73
2023-05-14T05:43:50.431Z,35.97
2023-05-14T05:46:17.439Z,36.17
2023-05-14T05:48:44.521Z,36.26
2023-05-14T05:51:11.721Z,37.59
2023-05-14T05:53:38.714Z,36.21
2023-05-14T05:56:06.502Z,37.28
2023-05-14T05:58:33.791Z,37.41
2023-05-14T06:01:01.331Z,38.49
2023-05-14T06:03:28.463Z,38.91
2023-05-14T06:05:55.540Z,38.57
2023-05-14T06:08:22.599Z,38.64
2023-05-14T06:10:49.752Z,37.48
2023-05-14T06:13:16.980Z,37.89
2023-05-14T06:15:44.101Z,38.18
2023-05-14T06:18:11.087Z,37.11
2023-05-14T06:20:38.134Z,36.18
2023-05-14T06:23:05.989Z,37.32
2023-05-14T06:25:32.989Z,37.47
2023-05-14T06:27:59.957Z,37.37
2023-05-14T06:30:27.098Z,37.33
2023-05-14T06:32:54.633Z,36.71
2023-05-14T06:35:21.751Z,36.71
2023-05-14T06:37:48.750Z,37.68
2023-05-14T06:40:15.901Z,37.40
2023-05-14T06:42:42.894Z,36.87
2023-05-14T06:45:10.603Z,36.57
2023-05-14T06:47:37.763Z,35.87
2023-05-14T06:50:05.388Z,36.21
2023-05-14T06:52:32.436Z,36.72
2023-05-14T06:54:59.501Z,36.46
2023-05-14T06:57:26.751Z,36.43
2023-05-14T06:59:53.793Z,36.10
2023-05-14T07:02:20.958Z,36.40
2023-05-14T07:04:48.304Z,37.05
2023-05-14T07:07:18.360Z,37.38
2023-05-14T07:09:45.394Z,36.13
2023-05-14T07:12:12.488Z,37.92
2023-05-14T07:14:39.554Z,35.63
2023-05-14T07:17:06.564Z,34.57
2023-05-14T07:19:33.720Z,34.18
2023-05-14T07:22:01.233Z,33.29
2023-05-14T07:24:28.240Z,33.66
2023-05-14T07:26:57.241Z,32.25
2023-05-14T07:29:25.530Z,32.89
2023-05-14T07:31:52.592Z,31.78
2023-05-14T07:34:19.712Z,31.74
2023-05-14T07:36:47.109Z,32.13
2023-05-14T07:39:14.269Z,31.90
2023-05-14T07:41:41.297Z,32.16
2023-05-14T07:44:08.351Z,32.03
2023-05-14T07:46:36.592Z,32.47
2023-05-14T07:49:03.897Z,30.99
2023-05-14T07:51:33.526Z,30.51
2023-05-14T07:54:00.676Z,29.35
2023-05-14T07:56:27.728Z,29.88
2023-05-14T07:58:54.791Z,29.12
2023-05-14T08:01:22.919Z,29.43
2023-05-14T08:03:50.197Z,29.70
2023-05-14T08:06:17.302Z,28.37
2023-05-14T08:08:44.259Z,30.42
2023-05-14T08:11:11.380Z,31.11
2023-05-14T08:13:38.436Z,30.77
2023-05-14T08:16:06.340Z,31.12
2023-05-14T08:18:33.348Z,31.19
2023-05-14T08:21:01.654Z,30.47
2023-05-14T08:23:30.269Z,30.75
2023-05-14T08:25:57.232Z,31.73
2023-05-14T08:28:24.212Z,32.02
2023-05-14T08:30:51.596Z,32.24
2023-05-14T08:33:18.654Z,31.29
2023-05-14T08:35:45.660Z,30.69
2023-05-14T08:38:12.758Z,29.54
2023-05-14T08:40:40.467Z,29.50
2023-05-14T08:43:09.411Z,29.11
2023-05-14T08:45:38.476Z,29.10
2023-05-14T08:48:11.207Z,28.64
2023-05-14T08:50:38.423Z,27.95
2023-05-14T08:53:05.638Z,28.27
2023-05-14T08:55:34.165Z,28.41
2023-05-14T08:58:01.554Z,28.71
2023-05-14T09:00:28.617Z,28.48
2023-05-14T09:02:55.973Z,28.01
2023-05-14T09:05:23.637Z,28.02
2023-05-14T09:07:50.588Z,27.50
2023-05-14T09:10:18.552Z,27.26
2023-05-14T09:12:45.587Z,27.13
2023-05-14T09:15:13.543Z,27.12
2023-05-14T09:17:40.754Z,27.67
2023-05-14T09:20:09.508Z,27.70
2023-05-14T09:22:36.566Z,26.67
2023-05-14T09:25:09.672Z,26.67
2023-05-14T09:27:37.032Z,26.15
2023-05-14T09:30:12.645Z,25.86
2023-05-14T09:32:50.345Z,25.49
2023-05-14T09:35:21.977Z,25.62
2023-05-14T09:37:54.378Z,25.94
2023-05-14T09:40:24.364Z,26.47
2023-05-14T09:42:51.734Z,26.13
2023-05-14T09:45:18.840Z,26.31
2023-05-14T09:47:46.173Z,26.95
2023-05-14T09:50:13.638Z,27.01
2023-05-14T09:52:40.714Z,26.04
2023-05-14T09:55:08.480Z,26.74
2023-05-14T09:57:35.826Z,26.02
2023-05-14T10:00:03.847Z,25.44
2023-05-14T10:02:38.210Z,25.74
2023-05-14T10:05:07.063Z,25.54
2023-05-14T10:07:46.800Z,24.95
2023-05-14T10:10:21.299Z,25.31
2023-05-14T10:13:04.294Z,25.39
2023-05-14T10:15:41.674Z,25.14
2023-05-14T10:18:16.287Z,25.22
2023-05-14T10:20:44.185Z,24.56
2023-05-14T10:23:11.359Z,24.94
2023-05-14T10:25:39.114Z,25.33
2023-05-14T10:28:06.752Z,25.79
2023-05-14T10:30:33.824Z,25.98
2023-05-14T10:33:16.822Z,25.68
2023-05-14T10:36:06.369Z,25.10
2023-05-14T10:38:38.146Z,24.95
2023-05-14T10:41:12.962Z,24.73
2023-05-14T10:43:42.242Z,24.61
2023-05-14T10:46:12.802Z,24.84
2023-05-14T10:48:43.016Z,25.25
2023-05-14T10:51:11.459Z,25.27
2023-05-14T10:53:43.293Z,25.08
2023-05-14T10:56:14.007Z,25.23
2023-05-14T10:58:44.321Z,24.62
2023-05-14T11:01:13.668Z,24.75
2023-05-14T11:03:46.850Z,25.00
2023-05-14T11:06:16.691Z,24.87
2023-05-14T11:08:44.717Z,24.44
2023-05-14T11:11:11.997Z,24.60
2023-05-14T11:13:39.265Z,24.40
2023-05-14T11:18:38.698Z,24.47
2023-05-14T11:21:05.911Z,24.59
2023-05-14T11:23:33.009Z,24.37
2023-05-14T11:26:00.009Z,24.12
2023-05-14T11:28:27.440Z,24.25
2023-05-14T11:30:54.721Z,24.09
2023-05-14T11:33:21.802Z,24.48
2023-05-14T11:35:48.867Z,24.52
2023-05-14T11:38:21.240Z,24.46
2023-05-14T11:40:56.847Z,24.26
2023-05-14T11:43:26.146Z,24.20
2023-05-14T11:45:54.706Z,24.73
2023-05-14T11:48:23.022Z,23.78
2023-05-14T11:50:52.832Z,24.42
2023-05-14T11:53:28.044Z,24.04
2023-05-14T11:55:57.763Z,24.02
2023-05-14T11:58:25.343Z,24.36
2023-05-14T12:00:53.645Z,24.04
2023-05-14T12:03:25.686Z,23.95
2023-05-14T12:06:00.618Z,23.98
2023-05-14T12:08:31.905Z,23.62
2023-05-14T12:11:00.720Z,23.83
2023-05-14T12:13:32.495Z,23.72
2023-05-14T12:16:02.393Z,23.66
2023-05-14T12:18:32.029Z,24.45
2023-05-14T12:21:08.406Z,24.43
2023-05-14T12:23:35.628Z,24.27
2023-05-14T12:26:07.326Z,24.03
2023-05-14T12:28:37.960Z,23.82
2023-05-14T12:31:05.879Z,23.73
2023-05-14T12:33:32.931Z,24.06
2023-05-14T12:36:19.884Z,24.25
2023-05-14T12:38:48.838Z,24.01
2023-05-14T12:41:15.954Z,23.53
2023-05-14T12:43:49.644Z,23.90
2023-05-14T12:46:17.205Z,23.75
2023-05-14T12:48:44.279Z,23.80
2023-05-14T12:51:11.252Z,23.81
2023-05-14T12:53:38.370Z,24.12
2023-05-14T12:56:06.410Z,24.44
2023-05-14T12:58:33.609Z,24.38
2023-05-14T13:01:00.712Z,24.57
2023-05-14T13:03:27.875Z,24.46
2023-05-14T13:05:55.056Z,24.11
2023-05-14T13:08:25.025Z,24.17
2023-05-14T13:10:53.450Z,24.22
2023-05-14T13:13:20.448Z,24.22
2023-05-14T13:15:48.007Z,24.10
2023-05-14T13:18:16.605Z,24.32
2023-05-14T13:20:45.666Z,24.10
2023-05-14T13:23:12.689Z,23.92
2023-05-14T13:25:39.918Z,23.78
2023-05-14T13:28:08.463Z,23.52
2023-05-14T13:30:35.564Z,23.91
2023-05-14T13:33:02.652Z,23.76
2023-05-14T13:35:29.734Z,24.00
2023-05-14T13:37:56.703Z,24.12
2023-05-14T13:40:23.737Z,24.19
2023-05-14T13:42:50.740Z,24.26
2023-05-14T13:45:17.778Z,24.12
2023-05-14T13:47:44.838Z,24.03
2023-05-14T13:50:11.958Z,23.90
2023-05-14T13:52:39.343Z,23.60
2023-05-14T13:55:07.283Z,23.62
2023-05-14T13:57:34.239Z,23.42
2023-05-14T14:00:01.570Z,23.42
2023-05-14T14:02:28.645Z,23.19
2023-05-14T14:04:55.911Z,23.37
2023-05-14T14:07:22.994Z,23.78
2023-05-14T14:09:49.967Z,23.69
2023-05-14T14:12:17.135Z,23.65
2023-05-14T14:14:44.168Z,23.89
2023-05-14T14:17:11.164Z,23.80
2023-05-14T14:19:38.170Z,23.82
2023-05-14T14:22:05.657Z,23.83
2023-05-14T14:24:32.655Z,24.02
2023-05-14T14:26:59.909Z,23.97
2023-05-14T14:29:28.892Z,24.02
2023-05-14T14:31:56.037Z,23.98
2023-05-14T14:34:23.053Z,23.73
2023-05-14T14:36:50.035Z,23.43
2023-05-14T14:39:16.986Z,23.43
2023-05-14T14:41:44.613Z,23.74
2023-05-14T14:44:11.674Z,23.57
2023-05-14T14:46:38.660Z,23.51
2023-05-14T14:49:05.753Z,23.70
2023-05-14T14:51:33.085Z,23.60
2023-05-14T14:54:00.157Z,23.38
2023-05-14T14:56:27.494Z,23.47
2023-05-14T14:58:54.467Z,23.68
2023-05-14T15:01:22.861Z,23.87
2023-05-14T15:03:49.910Z,23.59
2023-05-14T15:06:16.882Z,23.65
2023-05-14T15:08:43.902Z,23.75
2023-05-14T15:11:10.900Z,23.61
2023-05-14T15:13:38.096Z,23.70
2023-05-14T15:16:05.416Z,23.44
2023-05-14T15:18:32.469Z,23.74
2023-05-14T15:20:59.456Z,23.55
2023-05-14T15:23:26.525Z,23.33
2023-05-14T15:25:53.537Z,23.55
2023-05-14T15:28:20.522Z,23.40
2023-05-14T15:30:50.484Z,23.40
2023-05-14T15:33:19.307Z,23.29
2023-05-14T15:35:46.719Z,23.39
2023-05-14T15:38:13.771Z,23.49
2023-05-14T15:40:41.649Z,23.59
2023-05-14T15:43:08.660Z,23.52
2023-05-14T15:45:35.640Z,23.41
2023-05-14T15:48:02.700Z,23.25
2023-05-14T15:50:29.726Z,23.23
2023-05-14T15:55:23.590Z,23.01
2023-05-14T15:57:50.731Z,23.15
2023-05-14T16:00:18.213Z,23.12
2023-05-14T16:02:45.472Z,22.78
2023-05-14T16:05:13.862Z,22.80
2023-05-14T16:07:41.476Z,22.69
2023-05-14T16:10:09.076Z,22.53
2023-05-14T16:12:36.130Z,22.69
2023-05-14T16:15:03.350Z,22.58
2023-05-14T16:17:32.714Z,22.50
2023-05-14T16:20:04.896Z,22.62
2023-05-14T16:22:36.185Z,22.82
2023-05-14T16:25:04.858Z,22.75
2023-05-14T16:27:32.153Z,22.66
2023-05-14T16:29:59.212Z,22.64
2023-05-14T16:32:26.241Z,22.54
2023-05-14T16:34:53.339Z,22.67
2023-05-14T16:37:20.703Z,22.70
2023-05-14T16:39:48.540Z,22.59
2023-05-14T16:42:15.522Z,22.45
2023-05-14T16:44:42.590Z,22.44
2023-05-14T16:47:09.631Z,22.61
2023-05-14T16:49:36.639Z,22.59
2023-05-14T16:52:03.899Z,22.41
2023-05-14T16:54:30.877Z,22.50
2023-05-14T16:56:58.073Z,22.55
2023-05-14T16:59:25.384Z,22.70
2023-05-14T17:01:52.438Z,22.56
2023-05-14T17:04:19.514Z,22.54
2023-05-14T17:06:46.699Z,22.41
2023-05-14T17:09:13.700Z,22.37
2023-05-14T17:11:40.968Z,22.23
2023-05-14T17:14:09.150Z,22.41
2023-05-14T17:16:36.367Z,22.43
2023-05-14T17:19:03.604Z,22.19
2023-05-14T17:21:31.484Z,22.14
2023-05-14T17:23:58.785Z,22.03
2023-05-14T17:26:26.376Z,21.87
2023-05-14T17:28:53.348Z,22.00
2023-05-14T17:31:21.754Z,21.83
2023-05-14T17:33:49.341Z,21.87
2023-05-14T17:36:16.397Z,21.86
2023-05-14T17:38:43.369Z,21.75
2023-05-14T17:41:10.327Z,21.71
2023-05-14T17:43:37.328Z,21.90
2023-05-14T17:46:05.248Z,21.62
2023-05-14T17:48:32.245Z,21.85
2023-05-14T17:50:59.216Z,21.67
2023-05-14T17:53:26.319Z,21.57
2023-05-14T17:55:53.451Z,21.51
2023-05-14T17:58:20.521Z,21.48
2023-05-14T18:00:47.597Z,21.48
2023-05-14T18:03:15.174Z,21.45
2023-05-14T18:05:42.305Z,21.48
2023-05-14T18:08:09.706Z,21.41
2023-05-14T18:10:36.884Z,21.27
2023-05-14T18:13:04.079Z,21.34
2023-05-14T18:15:31.639Z,21.22
2023-05-14T18:17:59.112Z,21.20
2023-05-14T18:20:26.137Z,21.08
2023-05-14T18:22:53.252Z,21.15
2023-05-14T18:25:20.298Z,21.16
2023-05-14T18:27:47.368Z,20.97
2023-05-14T18:30:15.494Z,20.97
2023-05-14T18:32:44.773Z,20.79
2023-05-14T18:35:13.722Z,20.74
2023-05-14T18:37:41.262Z,20.61
2023-05-14T18:40:09.202Z,20.71
2023-05-14T18:42:36.309Z,20.64
2023-05-14T18:45:04.547Z,20.80
2023-05-14T18:47:33.102Z,20.65
2023-05-14T18:50:01.914Z,20.69
2023-05-14T18:52:29.540Z,20.55
2023-05-14T18:54:56.682Z,20.54
2023-05-14T18:57:23.833Z,20.51
2023-05-14T18:59:50.816Z,20.45
2023-05-14T19:02:17.855Z,20.49
2023-05-14T19:04:52.301Z,20.47
2023-05-14T19:07:21.028Z,20.38
2023-05-14T19:09:48.380Z,20.41
2023-05-14T19:12:16.290Z,20.40
2023-05-14T19:14:43.387Z,20.39
2023-05-14T19:17:11.038Z,20.31
2023-05-14T19:19:39.325Z,20.14
2023-05-14T19:22:06.859Z,20.12
2023-05-14T19:24:33.955Z,20.12
2023-05-14T19:27:01.189Z,20.25
2023-05-14T19:29:28.288Z,20.03
2023-05-14T19:31:55.360Z,19.88
2023-05-14T19:34:22.390Z,19.80
2023-05-14T19:36:49.730Z,19.91
2023-05-14T19:39:16.765Z,19.92
2023-05-14T19:41:43.806Z,19.80
2023-05-14T19:44:11.110Z,19.66
2023-05-14T19:46:38.272Z,19.62
2023-05-14T19:49:05.338Z,19.59
2023-05-14T19:51:32.613Z,19.71
2023-05-14T19:53:59.635Z,19.50
2023-05-14T19:56:27.384Z,19.43
2023-05-14T19:58:54.679Z,19.29
2023-05-14T20:01:21.853Z,19.26
2023-05-14T20:03:49.050Z,19.24
2023-05-14T20:06:17.588Z,19.19
2023-05-14T20:08:45.441Z,19.04
2023-05-14T20:11:12.688Z,19.09
2023-05-14T20:13:39.658Z,18.96
2023-05-14T20:16:06.770Z,18.90
2023-05-14T20:18:33.875Z,18.73
2023-05-14T20:21:01.335Z,18.85
2023-05-14T20:23:28.425Z,18.75
2023-05-14T20:25:55.754Z,18.96
2023-05-14T20:28:22.795Z,18.78
2023-05-14T20:30:49.802Z,18.73
2023-05-14T20:33:17.004Z,18.72
2023-05-14T20:35:44.233Z,18.72
2023-05-14T20:38:12.886Z,18.76
2023-05-14T20:40:40.453Z,18.59
2023-05-14T20:43:07.524Z,18.35
2023-05-14T20:45:34.538Z,18.49
2023-05-14T20:48:01.719Z,18.50
2023-05-14T20:50:28.791Z,18.47
2023-05-14T20:52:56.084Z,18.42
2023-05-14T20:55:23.530Z,18.18
2023-05-14T20:57:50.918Z,18.26
2023-05-14T21:00:18.723Z,18.32
2023-05-14T21:02:45.892Z,18.24
2023-05-14T21:05:14.029Z,18.08
2023-05-14T21:07:41.127Z,18.21
2023-05-14T21:10:09.818Z,18.07
2023-05-14T21:12:36.937Z,18.14
2023-05-14T21:15:04.498Z,18.14
2023-05-14T21:17:31.533Z,18.13
2023-05-14T21:19:58.535Z,18.03
2023-05-14T21:22:27.303Z,17.97
2023-05-14T21:24:55.957Z,18.10
2023-05-14T21:27:23.377Z,17.87
2023-05-14T21:29:50.555Z,17.96
2023-05-14T21:32:18.010Z,17.93
2023-05-14T21:34:45.073Z,17.74
2023-05-14T21:37:12.124Z,17.49
2023-05-14T21:39:39.112Z,17.57
2023-05-14T21:42:06.650Z,17.59
2023-05-14T21:44:33.691Z,17.56
2023-05-14T21:47:00.800Z,17.61
2023-05-14T21:49:27.796Z,17.63
2023-05-14T21:51:54.873Z,17.56
2023-05-14T21:54:21.894Z,17.50
2023-05-14T21:56:48.981Z,17.61
2023-05-14T21:59:15.968Z,17.43
2023-05-14T22:04:13.416Z,17.39
2023-05-14T22:06:40.645Z,17.15
2023-05-14T22:09:10.476Z,17.18
2023-05-14T22:11:37.500Z,17.29
2023-05-14T22:14:04.508Z,17.39
2023-05-14T22:16:33.454Z,17.26
2023-05-14T22:19:00.679Z,17.34
2023-05-14T22:21:28.489Z,17.28
2023-05-14T22:23:55.524Z,17.29
2023-05-14T22:26:22.580Z,17.25
2023-05-14T22:28:49.907Z,17.21
2023-05-14T22:31:17.039Z,17.09
2023-05-14T22:33:44.289Z,17.03
2023-05-14T22:36:11.285Z,17.17
2023-05-14T22:38:39.053Z,17.05
2023-05-14T22:41:06.097Z,16.89
2023-05-14T22:43:33.097Z,16.88
2023-05-14T22:46:00.260Z,17.01
2023-05-14T22:48:27.461Z,16.98
2023-05-14T22:50:54.541Z,16.99
2023-05-14T22:53:21.546Z,16.88
2023-05-14T22:55:48.696Z,17.06
2023-05-14T22:58:15.743Z,16.87
2023-05-14T23:00:42.735Z,17.02
2023-05-14T23:03:09.834Z,16.89
2023-05-14T23:05:36.890Z,16.87
2023-05-14T23:08:04.123Z,16.80
2023-05-14T23:10:31.341Z,16.90
2023-05-14T23:12:58.460Z,17.01
2023-05-14T23:15:25.756Z,16.96
2023-05-14T23:17:53.030Z,16.89
2023-05-14T23:20:20.111Z,17.01
2023-05-14T23:22:47.116Z,16.80
2023-05-14T23:25:14.168Z,16.86
2023-05-14T23:27:41.239Z,16.86
2023-05-14T23:30:08.908Z,16.76
2023-05-14T23:32:36.071Z,16.83
2023-05-14T23:35:03.237Z,16.76
2023-05-14T23:37:30.644Z,16.83
2023-05-14T23:39:57.668Z,16.77
2023-05-14T23:42:24.938Z,16.84
2023-05-14T23:44:51.925Z,16.90
2023-05-14T23:47:19.127Z,16.76
2023-05-14T23:49:46.157Z,16.79
2023-05-14T23:52:13.214Z,16.80
2023-05-14T23:54:40.243Z,16.78
2023-05-14T23:57:07.294Z,16.87
2023-05-14T23:59:34.392Z,16.76
